Time;durP1;ratioP1;P1;durP2;ratioP2;P2;SDS_P1;SDS_P2;PMS_P1;PMS_P2;Temp;Humidity;BMP_temperature;BMP_pressure;BME280_temperature;BME280_humidity;BME280_pressure;Samples;Min_cycle;Max_cycle;Signal;HPM_P1;HPM_P2
2021/05/25 00:01:37;;;;;;;5.15;1.00;;;;;;;13.08;75.25;99851.58;125549;1104;22897;-56
2021/05/25 00:04:08;;;;;;;4.30;0.90;;;;;;;13.08;75.15;99851.58;125567;1100;26197;-54
2021/05/25 00:06:36;;;;;;;;;;;;;;;13.07;75.10;99849.30;125589;1104;22886;-55
2021/05/25 00:09:08;;;;;;;4.15;1.10;;;;;;;13.03;75.19;99845.94;125545;1104;21474;-56
2021/05/25 00:11:37;;;;;;;4.15;1.00;;;;;;;13.02;75.28;99845.17;125556;1104;23453;-54
2021/05/25 00:14:10;;;;;;;3.83;1.03;;;;;;;13.00;75.31;99847.70;125525;1104;22764;-54
2021/05/25 00:16:40;;;;;;;4.95;1.30;;;;;;;13.00;75.40;99842.10;125617;1104;22935;-58
2021/05/25 00:19:10;;;;;;;4.45;1.00;;;;;;;12.99;75.70;99840.59;125550;1100;24020;-57
2021/05/25 00:21:40;;;;;;;4.70;1.10;;;;;;;12.96;75.87;99833.18;125671;1104;22746;-58
2021/05/25 00:24:09;;;;;;;;;;;;;;;12.92;75.63;99836.23;125517;1105;22823;-58
2021/05/25 00:26:40;;;;;;;3.53;0.87;;;;;;;12.87;75.79;99830.59;125630;1104;21467;-57
2021/05/25 00:29:12;;;;;;;5.07;0.90;;;;;;;12.83;76.13;99832.88;125786;1099;25855;-56
2021/05/25 00:31:43;;;;;;;4.95;1.10;;;;;;;12.83;76.14;99825.24;125516;1104;22748;-55
2021/05/25 00:34:14;;;;;;;5.00;1.20;;;;;;;12.83;76.18;99819.64;125631;1097;26453;-52
2021/05/25 00:36:42;;;;;;;;;;;;;;;12.82;76.06;99808.95;125579;1104;22738;-57
2021/05/25 00:39:14;;;;;;;5.73;1.00;;;;;;;12.80;76.40;99814.29;125526;1104;21474;-57
2021/05/25 00:41:46;;;;;;;7.55;1.15;;;;;;;12.78;76.35;99814.80;125662;1104;22926;-55
2021/05/25 00:44:19;;;;;;;6.80;1.20;;;;;;;12.77;76.50;99806.88;125627;1104;22789;-56
2021/05/25 00:46:49;;;;;;;6.05;1.20;;;;;;;12.77;76.38;99806.88;125656;1104;22740;-55
2021/05/25 00:49:19;;;;;;;3.40;1.20;;;;;;;12.76;76.47;99811.74;125660;1099;26273;-55
2021/05/25 00:51:52;;;;;;;4.10;1.20;;;;;;;12.77;76.63;99806.88;125659;1104;22740;-54
2021/05/25 00:54:22;;;;;;;4.70;1.35;;;;;;;12.78;76.78;99806.40;125570;1099;27261;-55
2021/05/25 00:56:52;;;;;;;5.53;1.45;;;;;;;12.78;76.65;99802.83;125559;1098;27680;-52
2021/05/25 00:59:21;;;;;;;;;;;;;;;12.77;76.71;99790.85;125599;1104;22760;-55
2021/05/25 01:01:51;;;;;;;4.25;1.40;;;;;;;12.75;76.94;99796.19;125589;1104;24192;-57
2021/05/25 01:04:21;;;;;;;6.10;1.40;;;;;;;12.73;76.85;99779.13;125651;1098;27634;-55
2021/05/25 01:06:52;;;;;;;5.35;1.20;;;;;;;12.72;76.85;99783.22;125524;1104;22761;-55
2021/05/25 01:09:22;;;;;;;5.97;1.23;;;;;;;12.74;77.15;99774.30;125659;1100;27040;-56
2021/05/25 01:11:55;;;;;;;4.20;1.20;;;;;;;12.75;77.22;99765.38;125537;1104;22761;-54
2021/05/25 01:14:35;;;;;;;5.00;1.10;;;;;;;12.77;76.95;99770.47;125644;1104;25404;-55
2021/05/25 01:17:10;;;;;;;4.60;1.50;;;;;;;12.78;77.23;99760.81;125499;1104;22832;-56
2021/05/25 01:19:42;;;;;;;5.75;1.50;;;;;;;12.78;77.04;99755.98;125552;1100;22740;-54
2021/05/25 01:22:18;;;;;;;6.70;1.60;;;;;;;12.79;77.22;99763.09;125510;1104;22842;-56
2021/05/25 01:24:51;;;;;;;5.85;1.40;;;;;;;12.81;77.46;99756.98;125572;1104;22891;-56
2021/05/25 01:27:25;;;;;;;10.10;1.60;;;;;;;12.80;77.04;99756.23;125534;1104;22829;-56
2021/05/25 01:29:54;;;;;;;4.77;1.40;;;;;;;12.82;77.31;99758.52;125524;1104;22756;-56
2021/05/25 01:32:24;;;;;;;4.33;1.20;;;;;;;12.81;77.58;99752.16;125645;1104;22788;-55
2021/05/25 01:34:54;;;;;;;8.90;1.40;;;;;;;12.81;77.38;99752.16;125592;1104;22762;-55
2021/05/25 01:37:26;;;;;;;3.93;1.13;;;;;;;12.81;77.64;99757.75;125587;1104;22974;-56
2021/05/25 01:39:56;;;;;;;8.70;1.35;;;;;;;12.81;77.46;99765.39;125624;1104;22707;-56
2021/05/25 01:42:36;;;;;;;5.10;1.25;;;;;;;12.81;77.59;99752.16;125640;1105;24256;-57
2021/05/25 01:45:09;;;;;;;6.40;1.30;;;;;;;12.82;77.54;99748.09;125625;1098;27635;-55
2021/05/25 01:47:42;;;;;;;5.05;1.20;;;;;;;12.81;77.73;99745.78;125616;1104;22740;-56
2021/05/25 01:50:17;;;;;;;5.90;1.35;;;;;;;12.79;77.55;99746.30;125493;1104;22975;-57
2021/05/25 01:53:01;;;;;;;6.57;1.30;;;;;;;12.81;77.75;99745.78;125543;1099;27262;-56
2021/05/25 01:55:38;;;;;;;7.65;1.30;;;;;;;12.81;77.84;99740.17;125577;1098;22764;-56
2021/05/25 01:58:10;;;;;;;5.00;1.20;;;;;;;12.80;77.38;99744.27;125642;1104;24575;-56
2021/05/25 02:00:42;;;;;;;5.87;1.30;;;;;;;12.79;77.68;99754.70;125688;1104;22784;-57
2021/05/25 02:03:17;;;;;;;6.30;1.45;;;;;;;12.80;77.51;99739.43;125574;1104;22881;-54
2021/05/25 02:05:49;;;;;;;5.50;1.30;;;;;;;12.77;77.69;99742.46;125693;1104;22746;-55
2021/05/25 02:08:24;;;;;;;6.45;1.30;;;;;;;12.76;77.64;99750.13;125799;1104;23561;-56
2021/05/25 02:10:56;;;;;;;5.05;1.20;;;;;;;12.75;78.08;99745.77;125537;1104;22740;-57
2021/05/25 02:13:29;;;;;;;5.10;1.10;;;;;;;12.75;77.77;99736.60;125510;1099;26225;-57
2021/05/25 02:16:01;;;;;;;5.00;1.10;;;;;;;12.75;78.01;99737.38;125609;1104;22777;-55
2021/05/25 02:18:33;;;;;;;3.90;1.27;;;;;;;12.76;77.96;99740.95;125451;1100;22768;-55
2021/05/25 02:21:07;;;;;;;6.55;1.25;;;;;;;12.76;77.91;99736.12;125585;1100;26701;-55
2021/05/25 02:23:39;;;;;;;6.53;1.23;;;;;;;12.75;77.97;99726.17;125529;1099;27261;-56
2021/05/25 02:26:10;;;;;;;5.25;1.30;;;;;;;12.75;77.60;99719.80;125473;1104;22902;-57
2021/05/25 02:28:40;;;;;;;5.57;1.50;;;;;;;12.73;78.19;99734.31;125666;1104;22813;-55
2021/05/25 02:31:11;;;;;;;6.58;1.40;;;;;;;12.72;77.96;99726.42;125527;1104;22906;-56
2021/05/25 02:33:42;;;;;;;6.83;1.50;;;;;;;12.71;78.33;99728.45;125770;1100;22771;-56
2021/05/25 02:36:12;;;;;;;5.40;1.60;;;;;;;12.70;78.15;99728.97;125648;1100;23274;-56
2021/05/25 02:38:41;;;;;;;4.15;1.20;;;;;;;12.68;78.05;99729.45;125510;1100;22731;-56
2021/05/25 02:41:12;;;;;;;3.98;1.20;;;;;;;12.67;78.16;99722.34;125441;1104;22816;-55
2021/05/25 02:43:42;;;;;;;4.25;1.10;;;;;;;12.68;78.46;99731.51;125502;1104;22822;-56
2021/05/25 02:46:14;;;;;;;3.88;1.20;;;;;;;12.66;78.26;99734.80;125521;1104;24462;-56
2021/05/25 02:48:50;;;;;;;5.33;1.30;;;;;;;12.65;78.26;99724.11;125831;1100;22734;-56
2021/05/25 02:51:23;;;;;;;5.10;1.30;;;;;;;12.65;78.15;99727.68;125616;1104;22780;-57
2021/05/25 02:53:53;;;;;;;4.75;1.40;;;;;;;12.66;77.95;99734.05;125591;1104;24407;-56
2021/05/25 02:56:22;;;;;;;;;;;;;;;12.66;78.10;99739.66;126005;1104;22761;-57
2021/05/25 02:58:56;;;;;;;5.93;1.20;;;;;;;12.64;78.16;99739.39;125512;1099;21481;-57
2021/05/25 03:01:29;;;;;;;5.37;1.43;;;;;;;12.63;78.10;99743.45;125861;1097;27265;-57
2021/05/25 03:04:00;;;;;;;6.23;1.30;;;;;;;12.61;78.27;99735.56;125529;1104;22740;-55
2021/05/25 03:06:30;;;;;;;5.35;1.25;;;;;;;12.61;78.85;99740.39;125648;1104;22897;-57
2021/05/25 03:08:59;;;;;;;;;;;;;;;12.60;78.49;99747.28;125507;1104;22799;-56
2021/05/25 03:11:31;;;;;;;5.10;1.55;;;;;;;12.59;77.92;99752.10;125648;1104;24284;-57
2021/05/25 03:14:00;;;;;;;5.17;1.30;;;;;;;12.58;78.38;99761.76;125500;1097;27153;-56
2021/05/25 03:16:31;;;;;;;4.68;1.20;;;;;;;12.57;78.36;99773.47;125465;1104;22838;-55
2021/05/25 03:18:59;;;;;;;;;;;;;;;12.51;78.63;99773.46;125531;1104;22900;-55
2021/05/25 03:21:29;;;;;;;5.17;1.20;;;;;;;12.47;78.65;99772.17;125466;1100;21484;-55
2021/05/25 03:23:59;;;;;;;4.70;1.48;;;;;;;12.45;78.37;99781.08;125491;1104;22826;-56
2021/05/25 03:26:30;;;;;;;6.67;1.47;;;;;;;12.43;78.60;99778.02;125556;1104;22732;-56
2021/05/25 03:29:02;;;;;;;5.05;1.45;;;;;;;12.44;78.99;99778.76;125497;1100;26225;-57
2021/05/25 03:31:36;;;;;;;3.90;1.40;;;;;;;12.43;78.62;99778.02;125405;1098;27294;-55
2021/05/25 03:34:06;;;;;;;4.63;1.30;;;;;;;12.46;78.92;99776.22;125729;1098;27118;-55
2021/05/25 03:36:38;;;;;;;8.73;1.60;;;;;;;12.47;78.84;99784.14;125451;1099;27263;-56
2021/05/25 03:39:09;;;;;;;7.80;1.20;;;;;;;12.49;79.11;99775.23;125545;1104;22822;-56
2021/05/25 03:41:40;;;;;;;5.80;1.07;;;;;;;12.50;78.94;99780.31;125508;1104;22768;-55
2021/05/25 03:44:13;;;;;;;;;;;;;;;12.52;79.05;99793.83;125466;1104;22762;-57
2021/05/25 03:46:44;;;;;;;3.95;1.00;;;;;;;12.48;79.21;99788.45;125545;1104;24189;-56
2021/05/25 03:49:15;;;;;;;2.73;1.07;;;;;;;12.51;79.15;99795.09;125621;1104;22765;-57
2021/05/25 03:51:46;;;;;;;3.87;0.90;;;;;;;12.52;79.16;99788.98;125523;1104;22744;-58
2021/05/25 03:54:20;;;;;;;4.05;0.70;;;;;;;12.53;78.90;99787.72;126104;1087;24719;-55
2021/05/25 03:56:53;;;;;;;3.10;0.90;;;;;;;12.56;79.27;99792.30;125538;1103;22750;-54
2021/05/25 03:59:23;;;;;;;9.47;0.90;;;;;;;12.56;79.02;99795.09;125702;1104;22853;-53
2021/05/25 04:01:54;;;;;;;6.03;0.80;;;;;;;12.57;79.19;99804.27;125586;1104;22774;-54
2021/05/25 04:04:24;;;;;;;4.80;0.60;;;;;;;12.55;79.18;99807.59;125517;1104;22899;-56
2021/05/25 04:06:56;;;;;;;3.53;0.70;;;;;;;12.56;79.16;99803.50;125485;1099;25961;-55
2021/05/25 04:09:27;;;;;;;4.53;0.60;;;;;;;12.58;79.00;99800.22;125503;1104;22777;-55
2021/05/25 04:11:57;;;;;;;4.15;0.80;;;;;;;12.57;78.71;99798.67;125482;1104;22766;-56
2021/05/25 04:14:27;;;;;;;4.70;0.60;;;;;;;12.55;78.82;99806.81;125457;1104;22801;-58
2021/05/25 04:16:57;;;;;;;2.35;0.60;;;;;;;12.53;79.14;99812.92;125442;1104;22760;-56
2021/05/25 04:19:27;;;;;;;3.65;0.50;;;;;;;12.53;79.06;99810.13;128285;1104;22822;-57
2021/05/25 04:21:58;;;;;;;4.65;0.78;;;;;;;12.54;78.96;99810.89;125727;1104;24406;-57
2021/05/25 04:24:28;;;;;;;3.65;0.75;;;;;;;12.54;78.93;99817.24;125746;1099;27683;-58
2021/05/25 04:26:58;;;;;;;5.95;0.75;;;;;;;12.56;79.01;99813.95;125615;1104;22746;-54
2021/05/25 04:29:28;;;;;;;2.58;0.70;;;;;;;12.59;79.03;99813.70;125514;1104;23076;-57
2021/05/25 04:31:58;;;;;;;2.45;0.60;;;;;;;12.63;79.31;99819.06;125450;1104;22750;-60
2021/05/25 04:34:28;;;;;;;2.50;0.63;;;;;;;12.67;79.28;99827.98;125537;1104;22839;-59
2021/05/25 04:36:58;;;;;;;2.03;0.60;;;;;;;12.68;79.77;99819.07;125470;1104;22822;-58
2021/05/25 04:39:31;;;;;;;7.60;0.70;;;;;;;12.72;79.58;99824.45;125545;1104;22777;-59
2021/05/25 04:42:01;;;;;;;5.55;0.70;;;;;;;12.76;79.67;99825.75;125411;1099;22756;-60
2021/05/25 04:44:30;;;;;;;2.08;0.70;;;;;;;12.79;79.47;99826.75;125400;1104;22761;-60
2021/05/25 04:47:00;;;;;;;2.65;0.88;;;;;;;12.82;79.73;99815.33;125385;1104;22774;-62
2021/05/25 04:49:32;;;;;;;3.78;0.80;;;;;;;12.90;79.67;99821.97;125673;1104;22773;-61
2021/05/25 04:52:03;;;;;;;3.90;0.80;;;;;;;12.97;79.74;99812.31;125578;1104;22893;-62
2021/05/25 04:54:34;;;;;;;4.93;0.87;;;;;;;13.05;80.16;99829.41;125635;1104;25370;-63
2021/05/25 04:57:04;;;;;;;3.30;0.80;;;;;;;13.13;80.06;99830.45;125265;1104;22754;-58
2021/05/25 04:59:34;;;;;;;7.20;1.20;;;;;;;13.18;79.93;99836.05;125993;1104;24239;-58
2021/05/25 05:02:04;;;;;;;4.93;1.10;;;;;;;13.29;79.92;99835.31;126020;1104;22743;-60
2021/05/25 05:04:35;;;;;;;5.17;0.83;;;;;;;13.40;79.41;99835.34;126074;1099;27176;-59
2021/05/25 05:07:05;;;;;;;5.45;1.20;;;;;;;13.53;79.65;99839.16;126101;1100;26223;-59
2021/05/25 05:09:35;;;;;;;3.70;0.90;;;;;;;13.65;79.74;99837.14;126100;1099;22784;-57
2021/05/25 05:12:06;;;;;;;5.43;1.10;;;;;;;13.77;79.34;99836.63;126026;1104;22710;-61
2021/05/25 05:14:36;;;;;;;4.40;1.13;;;;;;;13.87;79.09;99847.58;126130;1104;22774;-61
2021/05/25 05:17:06;;;;;;;2.38;0.70;;;;;;;13.92;78.69;99855.23;125927;1104;22787;-59
2021/05/25 05:19:36;;;;;;;3.17;0.77;;;;;;;13.94;78.38;99861.11;126123;1100;24396;-62
2021/05/25 05:22:05;;;;;;;3.95;0.80;;;;;;;13.96;78.63;99876.16;126017;1100;22775;-58
2021/05/25 05:24:35;;;;;;;7.68;0.90;;;;;;;14.00;78.10;99876.67;126023;1100;22754;-59
2021/05/25 05:27:09;;;;;;;4.93;0.97;;;;;;;14.02;78.16;99867.73;125965;1104;22755;-60
2021/05/25 05:29:39;;;;;;;6.10;0.90;;;;;;;14.03;77.91;99875.63;126078;1104;22747;-59
2021/05/25 05:32:10;;;;;;;4.95;1.18;;;;;;;14.05;78.09;99878.69;126151;1104;24810;-58
2021/05/25 05:34:40;;;;;;;7.73;1.10;;;;;;;14.08;77.55;99885.33;126215;1104;22848;-59
2021/05/25 05:37:10;;;;;;;5.38;1.28;;;;;;;14.10;77.58;99891.20;125966;1104;22797;-59
2021/05/25 05:39:40;;;;;;;4.00;1.15;;;;;;;14.11;77.06;99889.94;126167;1099;26248;-58
2021/05/25 05:42:10;;;;;;;5.70;0.80;;;;;;;14.13;77.03;99887.38;126044;1104;22760;-59
2021/05/25 05:44:42;;;;;;;6.30;0.90;;;;;;;14.16;76.79;99887.11;126910;1099;22822;-60
2021/05/25 05:47:12;;;;;;;9.00;0.90;;;;;;;14.19;76.24;99874.09;126105;1104;22742;-58
2021/05/25 05:49:42;;;;;;;5.00;0.70;;;;;;;14.22;75.81;99873.83;126205;1100;22775;-59
2021/05/25 05:52:14;;;;;;;5.35;0.80;;;;;;;14.26;76.27;99876.36;125990;1100;22768;-61
2021/05/25 05:54:44;;;;;;;3.20;0.48;;;;;;;14.31;75.69;99876.41;126342;1099;25742;-58
2021/05/25 05:57:14;;;;;;;;;;;;;;;14.35;75.23;99876.13;126074;1099;25713;-58
2021/05/25 05:59:44;;;;;;;6.73;0.80;;;;;;;14.36;75.32;99877.67;126180;1104;21471;-60
2021/05/25 06:02:14;;;;;;;3.68;0.55;;;;;;;14.35;75.21;99881.75;125975;1098;25716;-60
2021/05/25 06:04:44;;;;;;;6.38;0.80;;;;;;;14.35;75.06;99884.55;126063;1104;24315;-59
2021/05/25 06:07:13;;;;;;;;;;;;;;;14.33;74.77;99875.88;126034;1099;27176;-62
2021/05/25 06:09:47;;;;;;;3.23;0.70;;;;;;;14.33;75.13;99885.08;126092;1104;24183;-61
2021/05/25 06:12:18;;;;;;;6.00;0.60;;;;;;;14.42;75.72;99889.66;126055;1104;22920;-60
2021/05/25 06:14:48;;;;;;;5.00;0.67;;;;;;;14.53;74.60;99890.39;126139;1104;22782;-59
2021/05/25 06:17:20;;;;;;;4.80;0.55;;;;;;;14.62;74.53;99880.92;125996;1104;22732;-59
2021/05/25 06:19:50;;;;;;;4.35;0.60;;;;;;;14.69;74.42;99874.75;126098;1104;24209;-59
2021/05/25 06:22:22;;;;;;;3.83;0.60;;;;;;;14.80;73.46;99896.42;126306;1099;27180;-60
2021/05/25 06:24:54;;;;;;;3.10;0.40;;;;;;;14.90;73.14;99892.04;126189;1104;22735;-60
2021/05/25 06:27:25;;;;;;;3.95;0.63;;;;;;;15.01;73.43;99889.19;126065;1104;22771;-60
2021/05/25 06:29:55;;;;;;;3.75;0.50;;;;;;;15.08;72.66;99894.28;125937;1104;22781;-59
2021/05/25 06:32:27;;;;;;;2.20;0.40;;;;;;;15.07;72.37;99898.36;126105;1104;23200;-60
2021/05/25 06:34:57;;;;;;;2.80;0.57;;;;;;;15.04;72.04;99905.78;126433;1100;22832;-61
2021/05/25 06:37:28;;;;;;;2.95;0.60;;;;;;;15.00;71.34;99910.16;126119;1104;22747;-61
2021/05/25 06:39:58;;;;;;;2.87;0.50;;;;;;;14.94;71.56;99917.86;126085;1104;22828;-61
2021/05/25 06:42:27;;;;;;;;;;;;;;;14.91;71.21;99913.26;126095;1100;27195;-58
2021/05/25 06:44:58;;;;;;;3.15;0.60;;;;;;;14.86;71.51;99922.46;126172;1104;24195;-59
2021/05/25 06:47:28;;;;;;;2.00;0.45;;;;;;;14.83;71.93;99934.75;126126;1100;24192;-59
2021/05/25 06:49:59;;;;;;;2.93;0.50;;;;;;;14.80;71.19;99932.95;126290;1105;22717;-59
2021/05/25 06:52:29;;;;;;;3.00;0.60;;;;;;;14.78;71.54;99932.70;126282;1104;22802;-58
2021/05/25 06:55:00;;;;;;;;;;;;;;;14.83;71.65;99937.56;126199;1104;22771;-61
2021/05/25 06:57:31;;;;;;;1.50;0.50;;;;;;;14.88;71.19;99919.89;126246;1104;21536;-60
2021/05/25 07:00:00;;;;;;;3.35;0.43;;;;;;;14.94;71.65;99929.84;126153;1100;27566;-58
2021/05/25 07:02:31;;;;;;;2.57;0.60;;;;;;;14.99;71.24;99954.38;126133;1104;22849;-60
2021/05/25 07:05:03;;;;;;;1.97;0.40;;;;;;;15.00;70.46;99938.28;126039;1104;22935;-58
2021/05/25 07:07:34;;;;;;;2.00;0.40;;;;;;;15.01;70.61;99953.84;126056;1104;22793;-59
2021/05/25 07:10:06;;;;;;;1.90;0.45;;;;;;;15.00;70.34;99955.14;126368;1105;23500;-61
2021/05/25 07:12:39;;;;;;;1.40;0.40;;;;;;;15.00;70.13;99955.14;126168;1098;25765;-60
2021/05/25 07:15:11;;;;;;;6.00;0.60;;;;;;;14.95;69.56;99948.25;126200;1099;23049;-60
2021/05/25 07:17:47;;;;;;;2.45;0.35;;;;;;;14.89;69.15;99950.31;126494;1104;22770;-60
2021/05/25 07:20:18;;;;;;;3.20;0.40;;;;;;;14.83;69.16;99957.23;126229;1104;22768;-61
2021/05/25 07:22:53;;;;;;;2.10;0.40;;;;;;;14.69;68.75;99958.30;126297;1100;22933;-61
2021/05/25 07:25:26;;;;;;;6.23;0.80;;;;;;;14.59;69.26;99969.02;126335;1104;25598;-61
2021/05/25 07:27:57;;;;;;;5.30;0.65;;;;;;;14.46;69.37;99971.61;126300;1104;24260;-61
2021/05/25 07:30:27;;;;;;;2.60;0.70;;;;;;;14.34;69.87;99976.45;126145;1100;22922;-60
2021/05/25 07:32:58;;;;;;;2.85;0.60;;;;;;;14.21;69.26;99992.27;126202;1104;22719;-62
2021/05/25 07:35:29;;;;;;;2.73;0.57;;;;;;;14.05;69.91;99990.22;126172;1097;22719;-61
2021/05/25 07:38:00;;;;;;;3.55;0.55;;;;;;;13.92;70.18;100001.94;126146;1104;22839;-60
2021/05/25 07:40:30;;;;;;;3.35;0.75;;;;;;;13.80;70.54;100020.03;126010;1105;22740;-59
2021/05/25 07:43:00;;;;;;;;;;;;;;;13.64;69.02;100004.67;126178;1104;22772;-61
2021/05/25 07:45:30;;;;;;;5.23;0.40;;;;;;;13.52;69.25;100025.55;126135;1104;21526;-61
2021/05/25 07:48:03;;;;;;;2.15;0.20;;;;;;;13.39;68.68;100024.45;126152;1099;28598;-60
2021/05/25 07:50:35;;;;;;;1.53;0.30;;;;;;;13.27;68.83;100034.09;126032;1099;25934;-60
2021/05/25 07:53:05;;;;;;;1.55;0.30;;;;;;;13.15;68.79;100041.69;125959;1104;22753;-59
2021/05/25 07:55:36;;;;;;;3.10;0.40;;;;;;;13.07;69.70;100043.44;126087;1099;22754;-60
2021/05/25 07:58:06;;;;;;;2.65;0.40;;;;;;;12.99;69.54;100042.34;126268;1104;23319;-61
2021/05/25 08:00:38;;;;;;;;;;;;;;;12.95;69.89;100067.02;127175;1104;22754;-60
2021/05/25 08:03:08;;;;;;;1.63;0.30;;;;;;;12.90;70.24;100053.73;126214;1100;21463;-60
2021/05/25 08:05:38;;;;;;;3.38;0.60;;;;;;;12.86;70.26;100056.78;126160;1105;23096;-60
2021/05/25 08:08:09;;;;;;;3.57;0.50;;;;;;;12.83;69.97;100051.38;126072;1100;22977;-62
2021/05/25 08:10:40;;;;;;;2.00;0.47;;;;;;;12.80;70.38;100060.80;126081;1099;27313;-61
2021/05/25 08:13:10;;;;;;;2.17;0.40;;;;;;;12.77;70.43;100061.78;126170;1105;24446;-61
2021/05/25 08:15:41;;;;;;;3.63;0.60;;;;;;;12.75;71.09;100067.12;126142;1104;24200;-61
2021/05/25 08:18:17;;;;;;;2.10;0.50;;;;;;;12.72;71.68;100068.91;126150;1105;22835;-62
2021/05/25 08:20:47;;;;;;;5.23;0.60;;;;;;;12.70;71.58;100084.66;125963;1104;22832;-60
2021/05/25 08:23:18;;;;;;;1.95;0.40;;;;;;;12.66;71.73;100078.53;126081;1100;22754;-62
2021/05/25 08:25:48;;;;;;;4.50;0.50;;;;;;;12.62;71.49;100078.73;126089;1104;22747;-61
2021/05/25 08:28:18;;;;;;;2.23;0.50;;;;;;;12.60;71.89;100091.72;126109;1104;22754;-60
2021/05/25 08:30:47;;;;;;;;;;;;;;;12.54;71.86;100100.05;126098;1104;22831;-60
2021/05/25 08:33:19;;;;;;;2.00;0.40;;;;;;;12.49;71.88;100100.02;126193;1104;23404;-61
2021/05/25 08:35:51;;;;;;;3.10;0.40;;;;;;;12.46;71.59;100101.77;126443;1104;22831;-59
2021/05/25 08:38:23;;;;;;;2.73;0.60;;;;;;;12.46;72.49;100103.79;126300;1100;27558;-60
2021/05/25 08:40:55;;;;;;;2.45;0.40;;;;;;;12.48;72.51;100115.27;126493;1104;22896;-61
2021/05/25 08:43:34;;;;;;;2.90;0.40;;;;;;;12.51;72.86;100125.48;126222;1104;22756;-58
2021/05/25 08:46:06;;;;;;;3.15;0.60;;;;;;;12.52;72.99;100122.18;126271;1104;22889;-61
2021/05/25 08:48:41;;;;;;;2.87;0.40;;;;;;;12.51;72.37;100122.69;126199;1104;22896;-59
2021/05/25 08:51:14;;;;;;;2.55;0.55;;;;;;;12.50;72.70;100121.91;126185;1099;24284;-59
2021/05/25 08:53:44;;;;;;;2.73;0.60;;;;;;;12.52;72.81;100122.18;126341;1099;22763;-60
2021/05/25 08:56:14;;;;;;;4.23;0.65;;;;;;;12.55;73.00;100115.61;126006;1099;25767;-61
2021/05/25 08:58:45;;;;;;;4.68;0.75;;;;;;;12.57;73.20;100109.50;126155;1104;24162;-58
2021/05/25 09:01:13;;;;;;;;;;;;;;;12.60;72.83;100109.27;126343;1104;22764;-60
2021/05/25 09:04:01;;;;;;;2.17;0.37;;;;;;;12.62;73.17;100105.98;125984;1100;24195;-60
2021/05/25 09:06:42;;;;;;;3.30;0.60;;;;;;;12.66;73.21;100104.48;126266;1104;22771;-59
2021/05/25 09:09:16;;;;;;;3.45;0.40;;;;;;;12.70;73.49;100102.25;126242;1104;22741;-60
2021/05/25 09:12:00;;;;;;;1.67;0.40;;;;;;;12.72;72.94;100090.54;126181;1098;24569;-61
2021/05/25 09:14:35;;;;;;;2.57;0.50;;;;;;;12.74;72.76;100093.61;126194;1099;25774;-60
2021/05/25 09:17:21;;;;;;;2.40;0.40;;;;;;;12.77;72.85;100101.78;126138;1104;22754;-61
2021/05/25 09:19:53;;;;;;;4.67;0.50;;;;;;;12.82;73.40;100095.46;126221;1104;22750;-59
2021/05/25 09:22:38;;;;;;;1.85;0.55;;;;;;;12.90;73.00;100104.94;126264;1104;22826;-61
2021/05/25 09:25:15;;;;;;;3.00;0.65;;;;;;;12.95;72.78;100111.86;126232;1104;22747;-61
2021/05/25 09:27:58;;;;;;;2.15;0.60;;;;;;;12.99;72.73;100107.53;126043;1104;22781;-59
2021/05/25 09:30:31;;;;;;;4.50;0.50;;;;;;;13.07;72.91;100105.09;126216;1099;24419;-58
2021/05/25 09:33:04;;;;;;;3.70;0.60;;;;;;;13.15;72.98;100094.17;126174;1098;27039;-60
2021/05/25 09:35:36;;;;;;;2.33;0.50;;;;;;;13.24;73.25;100094.73;126211;1100;22766;-60
2021/05/25 09:38:11;;;;;;;1.60;0.50;;;;;;;13.36;73.40;100087.16;126275;1104;25683;-58
2021/05/25 09:40:44;;;;;;;2.60;0.60;;;;;;;13.45;72.75;100073.69;126435;1104;22783;-59
2021/05/25 09:43:18;;;;;;;1.35;0.40;;;;;;;13.52;73.24;100076.03;126281;1104;24586;-59
2021/05/25 09:46:05;;;;;;;2.20;0.50;;;;;;;13.58;72.08;100074.02;126428;1105;22949;-57
2021/05/25 09:48:54;;;;;;;2.90;0.70;;;;;;;13.59;70.98;100095.16;126216;1104;22747;-58
2021/05/25 09:51:27;;;;;;;2.00;0.50;;;;;;;13.66;71.71;100089.09;126142;1104;22750;-58
2021/05/25 09:53:57;;;;;;;4.90;0.70;;;;;;;13.76;72.01;100096.01;126356;1104;22747;-60
2021/05/25 09:56:31;;;;;;;2.70;0.60;;;;;;;13.86;70.99;100110.60;126249;1104;24689;-60
2021/05/25 09:59:02;;;;;;;4.93;0.60;;;;;;;13.94;71.62;100088.42;126215;1100;24394;-58
2021/05/25 10:01:36;;;;;;;4.00;0.50;;;;;;;14.01;71.35;100069.04;126211;1099;22782;-59
2021/05/25 10:04:13;;;;;;;4.55;0.60;;;;;;;14.06;70.68;100067.52;125783;1099;22778;-61
2021/05/25 10:06:48;;;;;;;2.00;0.50;;;;;;;14.09;70.47;100072.88;125821;1100;22774;-59
2021/05/25 10:09:23;;;;;;;2.03;0.40;;;;;;;14.12;70.64;100057.84;126449;1104;22844;-61
2021/05/25 10:11:55;;;;;;;2.45;0.40;;;;;;;14.16;69.63;100071.63;126282;1099;22758;-59
2021/05/25 10:14:25;;;;;;;1.90;0.43;;;;;;;14.16;69.96;100108.89;125845;1099;23269;-62
2021/05/25 10:16:58;;;;;;;2.55;0.50;;;;;;;14.15;69.53;100131.87;126161;1104;22771;-60
2021/05/25 10:19:30;;;;;;;4.55;0.60;;;;;;;14.15;70.17;100107.34;126316;1104;22768;-57
2021/05/25 10:22:03;;;;;;;3.00;0.50;;;;;;;14.17;70.25;100118.86;126418;1104;22767;-58
2021/05/25 10:27:08;;;;;;;2.50;0.60;;;;;;;14.20;69.59;100123.45;125795;1093;22771;-61
2021/05/25 10:29:43;;;;;;;3.65;0.55;;;;;;;14.22;69.13;100120.13;125602;1104;22818;-60
2021/05/25 10:32:22;;;;;;;4.60;0.85;;;;;;;14.22;68.59;100111.70;125564;1100;25849;-61
2021/05/25 10:34:54;;;;;;;2.50;0.47;;;;;;;14.21;68.76;100119.38;125480;1104;22805;-60
2021/05/25 10:37:25;;;;;;;3.60;0.50;;;;;;;14.24;68.74;100112.73;125803;1104;23336;-59
2021/05/25 10:39:56;;;;;;;2.75;0.50;;;;;;;14.28;68.98;100126.52;125525;1099;22894;-58
2021/05/25 10:42:33;;;;;;;4.65;0.50;;;;;;;14.31;68.32;100122.73;126076;1099;26034;-57
2021/05/25 10:45:18;;;;;;;2.30;0.60;;;;;;;14.36;67.70;100114.31;125580;1104;22899;-58
2021/05/25 10:48:04;;;;;;;3.70;0.70;;;;;;;14.36;67.12;100108.70;125539;1104;22748;-58
2021/05/25 10:50:37;;;;;;;2.10;0.45;;;;;;;14.36;67.29;100122.00;125555;1104;22763;-58
2021/05/25 10:53:27;;;;;;;2.00;0.40;;;;;;;14.36;67.87;100114.31;125583;1104;22869;-58
2021/05/25 10:55:57;;;;;;;1.38;0.40;;;;;;;14.40;67.46;100117.64;125618;1104;22767;-59
2021/05/25 10:58:30;;;;;;;2.75;0.60;;;;;;;14.49;67.93;100119.44;125464;1099;22744;-60
2021/05/25 11:01:02;;;;;;;5.10;0.90;;;;;;;14.61;67.81;100134.28;125661;1104;22760;-60
2021/05/25 11:03:32;;;;;;;6.10;0.67;;;;;;;14.72;67.59;100123.03;126010;1098;27153;-60
2021/05/25 11:06:04;;;;;;;1.85;0.50;;;;;;;14.75;67.21;100119.98;125590;1104;22734;-58
2021/05/25 11:08:42;;;;;;;3.35;0.50;;;;;;;14.83;66.91;100118.20;125496;1104;22754;-60
2021/05/25 11:11:28;;;;;;;3.27;0.60;;;;;;;14.90;67.03;100111.27;125536;1104;24259;-59
2021/05/25 11:13:59;;;;;;;3.27;0.50;;;;;;;14.95;67.10;100124.57;126484;1099;27158;-60
2021/05/25 11:16:34;;;;;;;2.35;0.60;;;;;;;15.06;67.45;100118.95;125473;1104;22785;-60
2021/05/25 11:19:33;;;;;;;2.30;0.47;;;;;;;15.20;66.60;100124.30;125644;1104;23160;-60
2021/05/25 11:22:22;;;;;;;2.77;0.77;;;;;;;15.31;66.46;100110.20;125422;1104;22766;-61
2021/05/25 11:25:00;;;;;;;3.73;0.67;;;;;;;15.46;66.52;100092.31;125556;1105;22893;-58
2021/05/25 11:27:34;;;;;;;3.30;0.80;;;;;;;15.54;65.57;100098.93;125470;1105;22812;-60
2021/05/25 11:30:09;;;;;;;3.97;0.70;;;;;;;15.60;64.80;100108.11;125589;1104;22764;-61
2021/05/25 11:32:41;;;;;;;3.40;0.60;;;;;;;15.62;63.68;100114.73;125479;1099;25860;-61
2021/05/25 11:35:14;;;;;;;2.55;0.60;;;;;;;15.64;64.41;100109.38;125599;1104;22826;-60
2021/05/25 11:37:46;;;;;;;4.23;1.17;;;;;;;15.68;64.05;100112.69;125630;1104;22753;-60
2021/05/25 11:40:21;;;;;;;3.90;0.50;;;;;;;15.71;63.60;100119.31;125496;1104;22896;-60
2021/05/25 11:42:51;;;;;;;4.60;0.70;;;;;;;15.73;63.21;100122.38;125520;1104;22829;-60
2021/05/25 11:45:25;;;;;;;9.17;0.60;;;;;;;15.73;63.45;100108.30;125543;1104;23458;-60
2021/05/25 11:47:56;;;;;;;2.10;0.50;;;;;;;15.75;62.57;100109.33;125645;1105;22761;-59
2021/05/25 11:50:27;;;;;;;5.20;0.70;;;;;;;15.77;62.64;100108.80;125529;1104;22761;-60
2021/05/25 11:52:57;;;;;;;5.55;1.00;;;;;;;15.84;63.04;100116.70;125760;1099;24551;-58